Warning: Javascript must be enabled to use all the features on this page!


Page Loading - Please Wait...

Click to hideNews Bulletins

Peak Streamflow for Idaho

Click to hide state-specific text

USGS 13154500 SNAKE RIVER AT KING HILL ID

Elmore County, Idaho
Hydrologic Unit Code 17050101
Latitude  43°00'08", Longitude 115°12'09" NAD83
Drainage area 35,800  square miles
Contributing drainage area 35,800  square miles
Gage datum 2,492.30 feet above NGVD29
Output formats
Table
Graph
Tab-separated file
peakfq (watstore) format
Reselect output format
Water
Year
Date Gage
Height
(feet)
Stream-
flow
(cfs)
1909 1909-06-12   41,9006
1910 1910-05-02   34,0006
1911 1911-06-22 14.37 38,1006
1912 1912-06-17 14.20 37,4006
1913 1913-06-12 14.00 36,5006
1914 1914-06-10 14.40 37,5006
1915 1914-11-16 11.60 26,3006
1916 1916-05-12 11.10 24,8006
1917 1917-05-31 13.80 36,6006
1918 1918-06-22 16.30 47,2006
1919 1919-03-24 9.20 18,1006
1920 1920-05-19 10.20 20,9006
1921 1921-06-03 14.50 37,9006
1922 1922-05-23 12.25 28,7006
1923 1923-06-27 10.83 23,3006
1924 1924-02-08 8.77 15,8006
1925 1925-05-26 11.24 25,4006
1926 1925-11-10 8.55 15,3006
1927 1927-07-04 13.40 34,1006
1928 1928-06-01 11.50 26,2006
1929 1929-04-08 10.17 21,0006
1930 1929-11-04 8.96 16,3006
1931 1930-11-22 8.30 14,0006
1932 1932-02-28 8.87 14,9006
1933 1932-12-19 7.88 11,8006
1934 1933-10-20 7.02 9,8006
1935 1935-01-06   7,9806
1936 1936-06-08 11.96 27,8006
1937 1937-04-02 7.89 12,7006
1938 1938-05-06 11.94 27,8006
1939 1939-04-11 9.34 17,8006
1940 1940-05-01 7.50 11,3006
1941 1940-11-12 7.18 9,5606
1942 1942-04-26 10.59 21,2006
1943 1943-06-07 13.06 31,0006
1944 1944-06-15 11.83 27,1006
1945 1945-06-12 11.19 24,9006
1946 1946-04-28 12.00 28,0006
1947 1947-06-14 12.69 29,6006
1948 1948-06-25 11.07 23,4006
1949 1949-02-24 9.54 18,1006
1950 1950-06-28 12.60 29,5006
1951 1951-04-16 11.50 25,6006
1952 1952-05-10 12.06 27,8006
1953 1953-06-11 12.08 27,9006
1954 1954-05-30 9.88 19,1006
1955 1955-04-02 9.63 18,4006
1956 1956-06-04 12.52 29,4006
1957 1957-05-22 12.70 30,3006
1958 1958-04-25 9.71 19,0006
1959 1958-10-16 8.96 16,4006
1960 1960-03-07 8.65 15,3006
1961 1960-12-17 8.49 14,7006
1962 1962-05-02 10.52 21,6006
1963 1963-06-22 12.00 27,2006
1964 1964-06-23 12.93 32,0006
1965 1964-12-23 13.20 31,9006
1966 1966-01-17 9.72 18,5006
1967 1967-06-19 10.90 22,9006
1968 1968-06-18 9.78 18,6006
1969 1969-04-27 11.11 24,0006
1970 1970-05-11 11.31 24,8006
1971 1971-04-27 13.45 33,4006
1972 1972-04-17 12.39 29,1006
1973 1972-11-08 10.28 20,8006
1974 1974-04-23 12.75 30,6006
1975 1975-05-01 12.15 28,1006
1976 1976-04-15 12.23 28,4006
1977 1976-12-03 9.61 18,4006
1978 1978-04-11 9.36 17,5006
1979 1979-01-12 11.12 24,1006
1980 1980-06-06 12.34 28,9006
1981 1981-06-12 10.52 20,7006
1982 1982-04-17   26,0006
1983 1983-05-12 13.10 32,4006
1984 1984-06-15 13.36 33,7006
1985 1984-10-21 11.08 24,0006
1986 1986-04-07 12.84 30,9006
1987 1986-10-30 10.47 21,0006
1988 1987-10-21 7.74 11,6006
1989 1989-02-27 8.45 14,1006
1990 1989-11-03 8.73 13,9006
1991 1991-09-10 9.73 10,2006
1993 1993-06-11 11.84 26,3006
1994 1993-10-22 8.19 13,2006
1995 1995-06-10 12.16 27,9006
1996 1996-03-25   26,3006
1997 1997-06-22 15.51 42,2006
1998 1998-05-17   26,0006
1999 1999-06-07 13.04 30,8006
2000 1999-12-01 9.08 16,0006
2001 2000-12-12   10,7006
2002 2002-03-08   7,9906
2003 2002-10-01   8,6706
2004 2004-02-19   7,8506
2005 2005-05-17   9,3306
2006 2006-04-21 12.58 28,8006
2007 2006-10-30 8.56 13,8006
2008 2008-08-08 9.04 14,9006
2009 2009-04-18 11.85 24,9006
2010 2010-05-24   10,8006
2011 2011-06-02   29,5006
2012 2012-04-06   16,6006
2013 2013-05-30   9,2106
2014 2014-06-19 7.53 10,7006
2015 2015-02-18 7.06 9,6406
2016 2016-06-08 7.282 9,8806
2017 2017-04-14 13.06 32,1006
2018 2018-04-19 11.13 23,7006
2019 2019-04-24 11.40 24,8006
2020 2020-05-27 9.93 19,0006
2021 2021-05-22 9.42 13,2006
?
  Peak Gage-Height Qualification Codes.
?
  Peak Streamflow Qualification Codes.